createdAt,value
2018-03-15T00:01:48.305Z,60.10
2018-03-15T00:04:16.404Z,60.20
2018-03-15T00:06:44.612Z,60.50
2018-03-15T00:09:12.107Z,60.40
2018-03-15T00:11:40.818Z,60.30
2018-03-15T00:14:08.272Z,60.40
2018-03-15T00:16:35.801Z,60.40
2018-03-15T00:19:03.299Z,60.50
2018-03-15T00:21:31.613Z,60.80
2018-03-15T00:23:59.558Z,60.80
2018-03-15T00:26:27.184Z,60.70
2018-03-15T00:28:55.293Z,60.80
2018-03-15T00:31:24.336Z,60.90
2018-03-15T00:33:53.303Z,60.80
2018-03-15T00:36:22.464Z,60.90
2018-03-15T00:38:50.728Z,61.10
2018-03-15T00:41:18.163Z,61.00
2018-03-15T00:43:46.069Z,61.10
2018-03-15T00:46:14.224Z,61.10
2018-03-15T00:48:42.448Z,61.30
2018-03-15T00:51:09.901Z,61.30
2018-03-15T00:53:37.352Z,61.10
2018-03-15T00:56:06.404Z,61.10
2018-03-15T00:58:34.963Z,61.20
2018-03-15T01:01:02.693Z,61.10
2018-03-15T01:03:30.160Z,61.20
2018-03-15T01:05:57.832Z,61.30
2018-03-15T01:08:25.287Z,61.40
2018-03-15T01:10:53.077Z,61.50
2018-03-15T01:13:20.527Z,61.90
2018-03-15T01:15:48.692Z,62.00
2018-03-15T01:18:16.173Z,62.10
2018-03-15T01:20:44.449Z,62.30
2018-03-15T01:23:11.894Z,62.10
2018-03-15T01:25:39.776Z,62.20
2018-03-15T01:28:07.993Z,62.40
2018-03-15T01:30:35.883Z,62.50
2018-03-15T01:33:03.654Z,62.60
2018-03-15T01:35:31.316Z,62.60
2018-03-15T01:37:58.753Z,62.80
2018-03-15T01:40:26.326Z,62.80
2018-03-15T01:42:54.014Z,62.60
2018-03-15T01:45:22.368Z,62.70
2018-03-15T01:47:49.803Z,62.70
2018-03-15T01:50:17.277Z,62.70
2018-03-15T01:52:44.713Z,62.60
2018-03-15T01:55:12.916Z,62.50
2018-03-15T01:57:40.352Z,62.60
2018-03-15T02:00:07.833Z,62.50
2018-03-15T02:02:35.299Z,62.50
2018-03-15T02:05:03.339Z,62.50
2018-03-15T02:07:30.805Z,62.60
2018-03-15T02:09:58.870Z,62.50
2018-03-15T02:12:26.328Z,62.60
2018-03-15T02:14:54.169Z,62.50
2018-03-15T02:17:21.963Z,62.50
2018-03-15T02:19:49.834Z,62.50
2018-03-15T02:22:17.308Z,62.40
2018-03-15T02:24:45.152Z,62.40
2018-03-15T02:27:12.597Z,62.40
2018-03-15T02:29:40.056Z,62.30
2018-03-15T02:32:07.577Z,62.40
2018-03-15T02:34:35.593Z,62.30
2018-03-15T02:37:03.072Z,62.50
2018-03-15T02:39:30.570Z,62.60
2018-03-15T02:41:58.272Z,62.70
2018-03-15T02:44:25.722Z,63.20
2018-03-15T02:46:53.590Z,62.60
2018-03-15T02:49:21.049Z,62.40
2018-03-15T02:51:48.508Z,62.30
2018-03-15T02:54:15.960Z,62.10
2018-03-15T02:56:43.930Z,62.10
2018-03-15T02:59:11.369Z,62.10
2018-03-15T03:01:38.915Z,62.10
2018-03-15T03:04:06.377Z,62.20
2018-03-15T03:06:34.278Z,62.30
2018-03-15T03:09:01.729Z,62.40
2018-03-15T03:11:29.468Z,62.40
2018-03-15T03:13:56.932Z,62.40
2018-03-15T03:16:24.817Z,62.40
2018-03-15T03:18:52.257Z,62.60
2018-03-15T03:21:19.941Z,62.40
2018-03-15T03:23:47.800Z,62.50
2018-03-15T03:26:15.825Z,62.60
2018-03-15T03:28:43.262Z,62.50
2018-03-15T03:31:10.841Z,62.60
2018-03-15T03:33:38.276Z,62.60
2018-03-15T03:36:06.216Z,62.70
2018-03-15T03:38:33.680Z,62.90
2018-03-15T03:41:01.299Z,63.10
2018-03-15T03:43:29.293Z,63.30
2018-03-15T03:45:57.065Z,62.60
2018-03-15T03:48:24.731Z,63.20
2018-03-15T03:50:52.387Z,62.60
2018-03-15T03:53:19.849Z,62.70
2018-03-15T03:55:47.708Z,63.30
2018-03-15T03:58:15.153Z,62.80
2018-03-15T04:00:42.622Z,62.90
2018-03-15T04:03:10.099Z,62.90
2018-03-15T04:05:38.248Z,62.90
2018-03-15T04:08:06.047Z,62.90
2018-03-15T04:10:34.626Z,63.00
2018-03-15T04:13:02.842Z,63.00
2018-03-15T04:15:30.729Z,63.00
2018-03-15T04:17:58.183Z,63.10
2018-03-15T04:20:25.685Z,63.20
2018-03-15T04:22:53.906Z,63.20
2018-03-15T04:25:21.600Z,63.20
2018-03-15T04:27:49.043Z,63.20
2018-03-15T04:30:16.574Z,63.30
2018-03-15T04:32:44.033Z,63.40
2018-03-15T04:35:12.026Z,63.30
2018-03-15T04:37:39.464Z,63.30
2018-03-15T04:40:06.937Z,63.30
2018-03-15T04:42:34.396Z,63.30
2018-03-15T04:45:01.900Z,63.10
2018-03-15T04:47:29.720Z,63.10
2018-03-15T04:49:57.150Z,63.10
2018-03-15T04:52:25.037Z,63.20
2018-03-15T04:54:52.507Z,63.20
2018-03-15T04:57:20.268Z,63.10
2018-03-15T04:59:47.715Z,63.20
2018-03-15T05:02:15.338Z,63.30
2018-03-15T05:04:42.780Z,63.20
2018-03-15T05:07:10.862Z,63.30
2018-03-15T05:09:38.312Z,63.20
2018-03-15T05:12:06.144Z,63.30
2018-03-15T05:14:33.893Z,63.30
2018-03-15T05:17:01.660Z,63.50
2018-03-15T05:19:29.109Z,63.50
2018-03-15T05:21:56.871Z,63.50
2018-03-15T05:24:24.524Z,64.30
2018-03-15T05:26:52.511Z,63.60
2018-03-15T05:29:19.985Z,63.50
2018-03-15T05:31:47.421Z,64.10
2018-03-15T05:34:14.884Z,63.40
2018-03-15T05:36:42.664Z,63.40
2018-03-15T05:39:10.902Z,63.60
2018-03-15T05:41:38.348Z,63.60
2018-03-15T05:44:05.813Z,63.80
2018-03-15T05:46:33.256Z,63.80
2018-03-15T05:49:00.732Z,64.00
2018-03-15T05:51:28.183Z,64.00
2018-03-15T05:53:55.953Z,64.00
2018-03-15T05:56:23.650Z,64.10
2018-03-15T05:58:51.891Z,64.20
2018-03-15T06:01:19.336Z,64.20
2018-03-15T06:03:46.906Z,64.20
2018-03-15T06:06:14.917Z,64.30
2018-03-15T06:08:43.147Z,64.50
2018-03-15T06:11:11.022Z,64.40
2018-03-15T06:13:38.587Z,64.40
2018-03-15T06:16:06.029Z,64.40
2018-03-15T06:18:33.558Z,64.40
2018-03-15T06:21:01.038Z,64.50
2018-03-15T06:23:32.022Z,64.50
2018-03-15T06:26:00.678Z,64.40
2018-03-15T06:28:28.144Z,64.40
2018-03-15T06:30:55.579Z,64.30
2018-03-15T06:33:23.050Z,64.30
2018-03-15T06:35:50.833Z,64.40
2018-03-15T06:38:18.301Z,64.10
2018-03-15T06:40:46.546Z,64.20
2018-03-15T06:43:14.038Z,64.20
2018-03-15T06:45:42.244Z,64.20
2018-03-15T06:48:10.026Z,64.20
2018-03-15T06:50:37.478Z,64.20
2018-03-15T06:53:05.987Z,64.40
2018-03-15T06:55:33.712Z,64.40
2018-03-15T06:58:01.180Z,64.50
2018-03-15T07:00:28.668Z,64.20
2018-03-15T07:02:56.108Z,64.20
2018-03-15T07:05:23.615Z,64.60
2018-03-15T07:07:51.469Z,63.90
2018-03-15T07:10:20.019Z,64.00
2018-03-15T07:12:47.452Z,63.80
2018-03-15T07:15:14.931Z,63.80
2018-03-15T07:17:42.984Z,63.70
2018-03-15T07:20:10.546Z,63.50
2018-03-15T07:22:38.100Z,63.30
2018-03-15T07:25:05.976Z,63.50
2018-03-15T07:27:33.828Z,63.10
2018-03-15T07:30:01.279Z,62.70
2018-03-15T07:32:28.740Z,62.80
2018-03-15T07:34:56.537Z,62.60
2018-03-15T07:37:23.994Z,62.50
2018-03-15T07:39:51.838Z,62.40
2018-03-15T07:42:19.410Z,62.70
2018-03-15T07:44:46.867Z,62.90
2018-03-15T07:47:14.657Z,62.10
2018-03-15T07:49:43.025Z,62.00
2018-03-15T07:52:12.505Z,61.90
2018-03-15T07:54:39.967Z,61.90
2018-03-15T07:57:08.026Z,61.60
2018-03-15T07:59:35.470Z,61.70
2018-03-15T08:02:02.996Z,61.10
2018-03-15T08:04:31.172Z,60.70
2018-03-15T08:06:59.092Z,60.60
2018-03-15T08:09:27.305Z,61.00
2018-03-15T08:11:55.229Z,61.10
2018-03-15T08:14:22.704Z,61.50
2018-03-15T08:16:51.050Z,60.60
2018-03-15T08:19:18.530Z,60.50
2018-03-15T08:21:45.975Z,59.80
2018-03-15T08:24:13.811Z,59.70
2018-03-15T08:26:41.530Z,60.00
2018-03-15T08:29:09.780Z,59.80
2018-03-15T08:31:37.270Z,59.70
2018-03-15T08:34:05.560Z,59.90
2018-03-15T08:36:33.746Z,59.80
2018-03-15T08:39:01.221Z,59.50
2018-03-15T08:41:28.680Z,59.20
2018-03-15T08:43:56.211Z,60.20
2018-03-15T08:46:23.660Z,60.00
2018-03-15T08:48:51.436Z,59.50
2018-03-15T08:51:18.888Z,60.40
2018-03-15T08:53:46.693Z,60.80
2018-03-15T08:56:14.563Z,59.40
2018-03-15T08:58:42.028Z,59.00
2018-03-15T09:01:09.483Z,58.80
2018-03-15T09:03:36.951Z,59.50
2018-03-15T09:06:04.396Z,59.20
2018-03-15T09:08:32.316Z,58.50
2018-03-15T09:11:00.162Z,59.10
2018-03-15T09:13:28.397Z,59.90
2018-03-15T09:15:55.847Z,59.60
2018-03-15T09:18:23.328Z,58.90
2018-03-15T09:20:50.774Z,58.10
2018-03-15T09:23:18.295Z,58.50
2018-03-15T09:25:46.079Z,58.00
2018-03-15T09:28:13.909Z,57.90
2018-03-15T09:30:41.349Z,58.20
2018-03-15T09:33:09.581Z,58.30
2018-03-15T09:35:37.372Z,58.30
2018-03-15T09:38:05.690Z,58.70
2018-03-15T09:40:33.140Z,58.70
2018-03-15T09:43:00.944Z,57.90
2018-03-15T09:45:28.722Z,57.40
2018-03-15T09:47:57.154Z,57.10
2018-03-15T09:50:25.637Z,56.80
2018-03-15T09:52:54.595Z,56.60
2018-03-15T09:55:22.987Z,56.10
2018-03-15T09:57:50.477Z,56.00
2018-03-15T10:00:18.993Z,55.90
2018-03-15T10:02:46.462Z,56.10
2018-03-15T10:05:14.688Z,55.70
2018-03-15T10:07:42.778Z,55.60
2018-03-15T10:10:10.820Z,54.80
2018-03-15T10:12:38.308Z,54.80
2018-03-15T10:15:05.797Z,55.30
2018-03-15T10:17:33.297Z,54.50
2018-03-15T10:20:00.748Z,54.00
2018-03-15T10:22:29.436Z,54.00
2018-03-15T10:24:57.251Z,54.30
2018-03-15T10:27:26.017Z,53.90
2018-03-15T10:29:53.906Z,53.80
2018-03-15T10:32:21.366Z,53.50
2018-03-15T10:34:55.725Z,53.90
2018-03-15T10:37:23.225Z,53.90
2018-03-15T10:39:50.684Z,54.10
2018-03-15T10:42:18.933Z,53.80
2018-03-15T10:44:46.383Z,53.80
2018-03-15T10:47:13.902Z,53.70
2018-03-15T10:49:41.516Z,53.10
2018-03-15T10:52:09.056Z,52.10
2018-03-15T10:54:36.734Z,52.30
2018-03-15T10:57:04.610Z,52.10
2018-03-15T10:59:32.091Z,53.10
2018-03-15T11:02:06.378Z,52.20
2018-03-15T11:04:33.900Z,52.00
2018-03-15T11:07:04.177Z,51.80
2018-03-15T11:09:32.026Z,50.90
2018-03-15T11:12:00.002Z,50.20
2018-03-15T11:14:27.470Z,49.90
2018-03-15T11:16:54.931Z,51.40
2018-03-15T11:19:23.160Z,49.90
2018-03-15T11:21:50.889Z,49.90
2018-03-15T11:24:18.702Z,49.80
2018-03-15T11:26:46.769Z,49.90
2018-03-15T11:29:14.260Z,48.40
2018-03-15T11:31:42.476Z,49.30
2018-03-15T11:34:10.065Z,49.30
2018-03-15T11:36:37.941Z,50.00
2018-03-15T11:39:05.415Z,47.80
2018-03-15T11:41:33.628Z,47.00
2018-03-15T11:44:01.097Z,47.00
2018-03-15T11:46:28.988Z,47.60
2018-03-15T11:48:56.486Z,48.00
2018-03-15T11:51:24.786Z,47.90
2018-03-15T11:53:52.292Z,47.90
2018-03-15T11:56:20.049Z,47.40
2018-03-15T11:58:47.521Z,46.30
2018-03-15T12:01:14.960Z,45.00
2018-03-15T12:03:42.466Z,45.80
2018-03-15T12:06:09.921Z,45.90
2018-03-15T12:08:37.936Z,45.00
2018-03-15T12:11:05.858Z,44.00
2018-03-15T12:13:35.822Z,43.30
2018-03-15T12:16:03.276Z,44.90
2018-03-15T12:18:30.830Z,45.10
2018-03-15T12:20:58.605Z,44.30
2018-03-15T12:23:26.077Z,44.80
2018-03-15T12:25:54.033Z,44.10
2018-03-15T12:28:21.897Z,42.80
2018-03-15T12:30:49.372Z,43.00
2018-03-15T12:33:16.922Z,41.90
2018-03-15T12:35:45.525Z,42.40
2018-03-15T12:38:13.825Z,42.80
2018-03-15T12:40:41.328Z,42.80
2018-03-15T12:43:08.784Z,41.80
2018-03-15T12:45:36.270Z,42.70
2018-03-15T12:48:04.480Z,42.80
2018-03-15T12:50:31.957Z,42.80
2018-03-15T12:52:59.598Z,42.90
2018-03-15T12:55:27.420Z,44.70
2018-03-15T12:57:54.940Z,42.90
2018-03-15T13:00:22.393Z,40.80
2018-03-15T13:02:49.974Z,41.10
2018-03-15T13:05:17.418Z,40.10
2018-03-15T13:07:44.973Z,39.30
2018-03-15T13:10:12.827Z,40.50
2018-03-15T13:12:40.629Z,40.20
2018-03-15T13:15:08.081Z,39.60
2018-03-15T13:17:37.066Z,40.30
2018-03-15T13:20:04.650Z,40.30
2018-03-15T13:22:32.889Z,40.00
2018-03-15T13:25:00.625Z,39.90
2018-03-15T13:27:28.529Z,41.20
2018-03-15T13:29:55.966Z,41.40
2018-03-15T13:32:23.513Z,42.60
2018-03-15T13:34:51.508Z,42.80
2018-03-15T13:37:18.989Z,43.20
2018-03-15T13:39:46.440Z,43.10
2018-03-15T13:42:13.923Z,42.40
2018-03-15T13:44:42.132Z,43.10
2018-03-15T13:47:09.647Z,43.10
2018-03-15T13:49:37.887Z,42.70
2018-03-15T13:52:05.365Z,42.10
2018-03-15T13:54:33.665Z,42.10
2018-03-15T13:57:01.589Z,42.10
2018-03-15T13:59:29.051Z,43.20
2018-03-15T14:01:56.520Z,42.00
2018-03-15T14:04:24.394Z,42.70
2018-03-15T14:06:53.059Z,41.80
2018-03-15T14:09:21.013Z,41.80
2018-03-15T14:11:49.013Z,42.00
2018-03-15T14:14:16.745Z,43.30
2018-03-15T14:16:44.205Z,43.50
2018-03-15T14:19:11.690Z,42.60
2018-03-15T14:21:39.913Z,42.90
2018-03-15T14:24:07.810Z,43.40
2018-03-15T14:26:35.273Z,43.40
2018-03-15T14:29:03.271Z,42.20
2018-03-15T14:31:31.496Z,40.90
2018-03-15T14:33:58.954Z,40.80
2018-03-15T14:36:26.723Z,41.00
2018-03-15T14:38:54.236Z,41.80
2018-03-15T14:41:21.680Z,41.50
2018-03-15T14:43:49.932Z,41.00
2018-03-15T14:46:17.398Z,41.00
2018-03-15T14:48:45.632Z,42.60
2018-03-15T14:51:13.084Z,42.50
2018-03-15T14:53:40.620Z,42.70
2018-03-15T14:56:08.237Z,42.30
2018-03-15T14:58:36.696Z,42.70
2018-03-15T15:01:04.176Z,42.60
2018-03-15T15:03:31.838Z,42.90
2018-03-15T15:05:59.276Z,43.40
2018-03-15T15:08:26.761Z,43.40
2018-03-15T15:10:55.218Z,43.50
2018-03-15T15:13:22.670Z,43.50
2018-03-15T15:15:50.146Z,43.50
2018-03-15T15:18:17.624Z,43.80
2018-03-15T15:20:45.880Z,44.10
2018-03-15T15:23:13.304Z,44.10
2018-03-15T15:25:41.177Z,43.80
2018-03-15T15:28:09.142Z,44.20
2018-03-15T15:30:37.326Z,45.00
2018-03-15T15:33:04.852Z,45.70
2018-03-15T15:35:32.756Z,46.50
2018-03-15T15:38:00.236Z,46.90
2018-03-15T15:40:28.472Z,47.60
2018-03-15T15:42:55.948Z,47.60
2018-03-15T15:45:23.459Z,47.50
2018-03-15T15:47:50.925Z,47.80
2018-03-15T15:50:18.436Z,47.90
2018-03-15T15:52:47.015Z,48.20
2018-03-15T15:55:15.899Z,48.50
2018-03-15T15:57:44.289Z,48.50
2018-03-15T16:00:12.523Z,48.70
2018-03-15T16:02:40.002Z,48.60
2018-03-15T16:05:07.715Z,49.40
2018-03-15T16:07:35.186Z,48.90
2018-03-15T16:10:03.176Z,48.60
2018-03-15T16:12:30.664Z,48.90
2018-03-15T16:14:58.887Z,50.00
2018-03-15T16:17:26.376Z,49.90
2018-03-15T16:19:54.690Z,49.70
2018-03-15T16:22:22.195Z,49.30
2018-03-15T16:24:49.969Z,49.10
2018-03-15T16:27:17.486Z,48.90
2018-03-15T16:29:45.389Z,49.50
2018-03-15T16:32:12.893Z,49.40
2018-03-15T16:34:40.920Z,49.90
2018-03-15T16:37:08.429Z,50.00
2018-03-15T16:39:35.879Z,50.20
2018-03-15T16:42:03.386Z,50.10
2018-03-15T16:44:31.240Z,50.10
2018-03-15T16:46:58.928Z,50.00
2018-03-15T16:49:26.385Z,49.80
2018-03-15T16:51:53.861Z,50.00
2018-03-15T16:54:22.109Z,50.20
2018-03-15T16:56:49.927Z,50.20
2018-03-15T16:59:17.328Z,50.10
2018-03-15T17:01:44.936Z,50.30
2018-03-15T17:04:13.196Z,50.50
2018-03-15T17:06:41.539Z,50.70
2018-03-15T17:09:09.508Z,50.70
2018-03-15T17:11:37.387Z,50.70
2018-03-15T17:14:04.865Z,51.00
2018-03-15T17:16:33.116Z,51.10
2018-03-15T17:19:00.596Z,51.00
2018-03-15T17:21:28.126Z,51.00
2018-03-15T17:23:56.213Z,51.00
2018-03-15T17:26:23.654Z,51.20
2018-03-15T17:28:51.527Z,51.10
2018-03-15T17:31:18.972Z,51.30
2018-03-15T17:33:46.459Z,51.30
2018-03-15T17:36:15.227Z,51.40
2018-03-15T17:38:42.697Z,51.40
2018-03-15T17:41:10.914Z,51.70
2018-03-15T17:43:38.476Z,51.70
2018-03-15T17:46:05.928Z,51.60
2018-03-15T17:48:33.409Z,51.80
2018-03-15T17:51:00.941Z,51.80
2018-03-15T17:53:28.493Z,52.50
2018-03-15T17:55:56.205Z,52.10
2018-03-15T17:58:23.682Z,52.30
2018-03-15T18:00:51.909Z,52.60
2018-03-15T18:03:19.451Z,52.60
2018-03-15T18:05:46.890Z,52.70
2018-03-15T18:08:14.502Z,52.80
2018-03-15T18:10:42.575Z,53.00
2018-03-15T18:13:10.059Z,53.20
2018-03-15T18:15:38.294Z,53.40
2018-03-15T18:18:05.786Z,53.40
2018-03-15T18:20:33.237Z,53.40
2018-03-15T18:23:00.752Z,54.80
2018-03-15T18:25:28.635Z,53.60
2018-03-15T18:27:56.113Z,53.60
2018-03-15T18:30:24.090Z,53.70
2018-03-15T18:32:51.580Z,53.70
2018-03-15T18:35:19.437Z,53.90
2018-03-15T18:37:47.770Z,54.00
2018-03-15T18:40:15.287Z,54.00
2018-03-15T18:42:43.296Z,54.00
2018-03-15T18:45:10.769Z,54.30
2018-03-15T18:47:38.303Z,54.20
2018-03-15T18:50:05.761Z,54.30
2018-03-15T18:52:33.233Z,54.40
2018-03-15T18:55:00.761Z,54.50
2018-03-15T18:57:28.674Z,54.80
2018-03-15T18:59:56.941Z,54.90
2018-03-15T19:02:24.424Z,54.90
2018-03-15T19:04:51.917Z,55.00
2018-03-15T19:07:19.393Z,55.00
2018-03-15T19:09:48.402Z,55.10
2018-03-15T19:12:15.881Z,55.10
2018-03-15T19:14:44.134Z,55.20
2018-03-15T19:17:12.360Z,55.10
2018-03-15T19:19:39.802Z,55.10
2018-03-15T19:22:07.252Z,55.10
2018-03-15T19:24:35.080Z,55.30
2018-03-15T19:27:02.558Z,55.20
2018-03-15T19:29:31.413Z,55.50
2018-03-15T19:31:59.638Z,55.40
2018-03-15T19:34:28.647Z,55.60
2018-03-15T19:36:56.396Z,55.60
2018-03-15T19:39:23.912Z,55.60
2018-03-15T19:41:51.378Z,55.40
2018-03-15T19:44:18.974Z,55.60
2018-03-15T19:46:46.443Z,55.60
2018-03-15T19:49:13.949Z,55.60
2018-03-15T19:51:42.189Z,55.60
2018-03-15T19:54:09.820Z,55.60
2018-03-15T19:56:37.966Z,55.80
2018-03-15T19:59:05.593Z,55.90
2018-03-15T20:01:33.048Z,55.80
2018-03-15T20:04:01.132Z,55.80
2018-03-15T20:06:28.575Z,55.80
2018-03-15T20:08:56.026Z,56.00
2018-03-15T20:11:23.914Z,56.00
2018-03-15T20:13:51.386Z,55.90
2018-03-15T20:16:19.350Z,56.00
2018-03-15T20:18:46.808Z,56.00
2018-03-15T20:21:14.561Z,55.80
2018-03-15T20:23:47.976Z,56.10
2018-03-15T20:26:15.685Z,55.90
2018-03-15T20:28:46.299Z,55.80
2018-03-15T20:31:14.244Z,55.90
2018-03-15T20:33:48.195Z,56.10
2018-03-15T20:36:16.099Z,56.10
2018-03-15T20:38:43.549Z,56.00
2018-03-15T20:41:16.791Z,56.00
2018-03-15T20:43:44.407Z,56.10
2018-03-15T20:46:17.677Z,56.30
2018-03-15T20:48:51.315Z,56.40
2018-03-15T20:51:18.777Z,56.90
2018-03-15T20:53:47.361Z,57.20
2018-03-15T20:56:16.248Z,56.90
2018-03-15T20:58:44.506Z,56.10
2018-03-15T21:01:11.972Z,56.10
2018-03-15T21:03:39.488Z,56.30
2018-03-15T21:06:07.703Z,56.00
2018-03-15T21:08:35.151Z,56.10
2018-03-15T21:11:02.944Z,56.30
2018-03-15T21:13:31.218Z,56.60
2018-03-15T21:15:59.428Z,56.80
2018-03-15T21:18:26.935Z,56.80
2018-03-15T21:20:54.404Z,56.90
2018-03-15T21:23:22.712Z,57.20
2018-03-15T21:25:50.783Z,57.20
2018-03-15T21:28:18.281Z,57.50
2018-03-15T21:30:46.001Z,57.60
2018-03-15T21:33:13.465Z,57.80
2018-03-15T21:35:41.328Z,57.90
2018-03-15T21:38:09.128Z,58.10
2018-03-15T21:40:36.583Z,58.00
2018-03-15T21:43:04.059Z,58.30
2018-03-15T21:45:31.529Z,58.10
2018-03-15T21:47:59.861Z,58.30
2018-03-15T21:50:27.324Z,58.30
2018-03-15T21:52:54.844Z,58.50
2018-03-15T21:55:22.923Z,58.50
2018-03-15T21:57:50.393Z,58.70
2018-03-15T22:00:18.280Z,59.60
2018-03-15T22:02:45.835Z,59.60
2018-03-15T22:05:13.690Z,59.60
2018-03-15T22:07:41.238Z,59.80
2018-03-15T22:10:09.036Z,59.80
2018-03-15T22:12:36.832Z,59.80
2018-03-15T22:15:05.052Z,60.00
2018-03-15T22:17:32.518Z,60.00
2018-03-15T22:20:00.527Z,60.00
2018-03-15T22:22:28.800Z,60.00
2018-03-15T22:24:57.452Z,60.30
2018-03-15T22:27:24.964Z,59.90
2018-03-15T22:29:52.760Z,60.10
2018-03-15T22:32:20.570Z,60.00
2018-03-15T22:34:49.229Z,60.60
2018-03-15T22:37:16.711Z,60.50
2018-03-15T22:39:44.966Z,60.20
2018-03-15T22:42:12.411Z,60.80
2018-03-15T22:44:40.185Z,59.30
2018-03-15T22:47:07.652Z,59.00
2018-03-15T22:49:35.962Z,58.90
2018-03-15T22:52:03.390Z,58.90
2018-03-15T22:54:31.697Z,60.40
2018-03-15T22:56:59.572Z,59.90
2018-03-15T22:59:26.980Z,60.20
2018-03-15T23:01:54.485Z,60.30
2018-03-15T23:04:22.404Z,61.30
2018-03-15T23:06:50.157Z,60.60
2018-03-15T23:09:17.647Z,60.60
2018-03-15T23:11:46.332Z,60.60
2018-03-15T23:14:14.572Z,60.70
2018-03-15T23:16:42.509Z,60.70
2018-03-15T23:19:09.977Z,60.90
2018-03-15T23:21:37.429Z,60.90
2018-03-15T23:24:05.318Z,61.40
2018-03-15T23:26:32.853Z,60.90
2018-03-15T23:29:00.419Z,60.90
2018-03-15T23:31:28.428Z,60.90
2018-03-15T23:33:56.681Z,61.00
2018-03-15T23:36:24.648Z,61.00
2018-03-15T23:38:52.108Z,61.70
2018-03-15T23:41:19.560Z,60.90
2018-03-15T23:43:47.623Z,61.00
2018-03-15T23:46:15.524Z,61.20
2018-03-15T23:48:44.092Z,62.10
2018-03-15T23:51:11.740Z,62.10
2018-03-15T23:53:39.180Z,62.60
2018-03-15T23:56:06.627Z,63.40
2018-03-15T23:58:34.212Z,63.90
